Impacts METAR Board
IDs:

KCLT - Charlotte/Douglas In, NC, US

Updated at: 0600 UTC 07 Dec 2022
Potential Impact None Slight Moderate High
Time 06/18Z 06/19Z 06/20Z 06/21Z 06/22Z 06/23Z 07/00Z 07/01Z 07/02Z 07/03Z 07/04Z 07/05Z 07/06Z
Temp48 49 50 49 49 50 50 50 50 50 50 50 50
Dewpt47 47 48 48 48 49 49 49 50 49 48 49 50
Altim30.21 30.21 30.21 30.22 30.21 30.24 30.24 30.25 30.25 30.25 30.26 30.26 30.26
VIS3 2 2 1 1 0.75 0.5 0.5 0.75 1 1.5 1 1
CIG2 4 3 3 2 2 2 2 2 2 2 2 2
CoverOVCOVCOVCOVCOVCOVCOVXOVXOVXOVXOVXOVXOVX
FltCatLIFRLIFRLIFRLIFRLIFRLIFRLIFRLIFRLIFRLIFRLIFRLIFRLIFR
WXBRBRBRBRBRBRFGFGBRBRBRBRBR
WDir8000280190001900032000
WSpd3 3 0 4 3 0 3 4 0 0 3 0 0
WGst-- -- -- -- -- -- -- -- -- -- -- -- --
Raw hourly METARs
KCLT 061803Z 08003KT 3SM BR OVC002 09/08 A3021 RMK RAE1758 P0000 T00890083
KCLT 061852Z VRB03KT 2SM BR OVC004 09/08 A3021 RMK RAE1758 SLP230 P0000 T00940083
KCLT 061952Z 00000KT 2SM BR OVC003 10/09 A3021 RMK SLP229 T01000089
KCLT 062052Z 28004KT 1SM BR OVC003 09/09 A3022 RMK SLP235 60000 T00940089 53003 RVRNO
KCLT 062152Z 19003KT 1SM BR OVC002 09/09 A3021 RMK RAB23E36 SLP232 P0000 T00940089 RVRNO
KCLT 062252Z 00000KT 3/4SM BR OVC002 10/09 A3024 RMK SLP239 T01000094 RVRNO
KCLT 062352Z VRB03KT 1/2SM FG VV002 10/09 A3024 RMK SLP241 60000 T01000094 10100 20089 53006 RVRNO
KCLT 070052Z 19004KT 1/2SM FG VV002 10/09 A3025 RMK SLP243 T01000094 RVRNO
KCLT 070152Z 00000KT 3/4SM BR VV002 10/10 A3025 RMK SLP245 T01000100 RVRNO
KCLT 070252Z 00000KT 1SM BR VV002 10/09 A3025 RMK SLP245 T01000094 51004 RVRNO
KCLT 070352Z 32003KT 1 1/2SM BR VV002 10/09 A3026 RMK SLP248 T010000094
KCLT 070452Z 00000KT 1SM BR VV002 10/09 A3026 RMK SLP246 T01000094 401000061 RVRNO
KCLT 070552Z 00000KT 1SM BR VV002 10/10 A3026 RMK SLP245 T01000100 10100 20100 50001 RVRNO



Page loaded:  06:49 UTC  |   10:49 PM Pacific  |   11:49 PM Mountain  |   12:49 AM Central  |   01:49 AM Eastern

 

ADVISORIES

FORECASTS

FORECASTS

OBSERVATIONS

USER TOOLS

ABOUT US